Time;durP1;ratioP1;P1;durP2;ratioP2;P2;SDS_P1;SDS_P2;PMS_P1;PMS_P2;Temp;Humidity;BMP_temperature;BMP_pressure;BME280_temperature;BME280_humidity;BME280_pressure;Samples;Min_cycle;Max_cycle;Signal;HPM_P1;HPM_P2
2023/05/29 00:00:08;;;;;;;1.55;0.43;;;;;;;17.44;57.11;101523.78;5007737;28;20042;-65
2023/05/29 00:02:35;;;;;;;0.50;0.50;;;;;;;17.51;56.74;101516.47;5020861;28;20693;-65
2023/05/29 00:05:05;;;;;;;0.45;0.20;;;;;;;17.43;56.45;101525.72;5014091;28;20104;-63
2023/05/29 00:07:34;;;;;;;0.38;0.30;;;;;;;17.29;57.56;101522.91;4993037;28;20049;-65
2023/05/29 00:10:00;;;;;;;0.30;0.25;;;;;;;17.30;57.63;101521.75;4993112;28;20029;-66
2023/05/29 00:12:25;;;;;;;1.92;0.32;;;;;;;17.17;57.20;101518.53;5008568;28;20445;-65
2023/05/29 00:14:50;;;;;;;1.20;0.50;;;;;;;17.19;57.34;101523.59;5010023;28;20137;-65
2023/05/29 00:17:16;;;;;;;0.20;0.20;;;;;;;17.12;57.46;101526.28;5006711;28;20096;-66
2023/05/29 00:19:43;;;;;;;2.08;0.60;;;;;;;16.98;58.54;101529.66;5036700;28;20043;-64
2023/05/29 00:22:08;;;;;;;0.40;0.20;;;;;;;16.94;58.18;101525.34;5048056;28;20028;-65
2023/05/29 00:24:33;;;;;;;0.17;0.17;;;;;;;16.94;58.39;101534.28;5051184;28;20043;-63
2023/05/29 00:26:59;;;;;;;2.92;0.43;;;;;;;17.01;57.93;101528.13;5051303;28;20032;-64
2023/05/29 00:29:24;;;;;;;0.45;0.45;;;;;;;16.94;57.94;101528.84;5059230;28;20102;-65
2023/05/29 00:31:53;;;;;;;0.10;0.10;;;;;;;16.90;58.72;101527.25;5050252;28;20048;-64
2023/05/29 00:34:19;;;;;;;0.68;0.30;;;;;;;16.92;58.55;101528.44;5046019;28;20020;-65
2023/05/29 00:36:45;;;;;;;0.65;0.45;;;;;;;16.87;57.86;101534.25;5049487;28;20068;-64
2023/05/29 00:39:10;;;;;;;0.95;0.40;;;;;;;16.81;58.07;101534.94;5034183;28;20052;-64
2023/05/29 00:41:36;;;;;;;0.10;0.10;;;;;;;16.79;57.83;101542.69;5058954;28;20394;-64
2023/05/29 00:44:02;;;;;;;0.65;0.43;;;;;;;16.78;58.42;101547.34;5041352;28;20028;-64
2023/05/29 00:46:29;;;;;;;0.73;0.40;;;;;;;16.85;58.41;101549.38;5046961;28;20039;-65
2023/05/29 00:48:55;;;;;;;0.20;0.20;;;;;;;16.91;57.54;101558.75;5044241;28;20028;-66
2023/05/29 00:51:21;;;;;;;4.28;1.08;;;;;;;16.87;58.20;101560.66;5062451;28;20036;-64
2023/05/29 00:53:49;;;;;;;1.38;0.20;;;;;;;16.78;58.39;101571.06;5050839;28;20036;-63
2023/05/29 00:56:14;;;;;;;1.45;0.30;;;;;;;16.57;58.80;101585.22;5047926;28;20074;-64
2023/05/29 00:58:41;;;;;;;1.58;0.15;;;;;;;16.79;57.65;101586.22;5056957;28;20044;-63
2023/05/29 01:01:07;;;;;;;0.45;0.40;;;;;;;16.59;58.19;101584.88;5035922;28;20071;-64
2023/05/29 01:03:35;;;;;;;0.30;0.15;;;;;;;16.56;58.02;101594.56;5059445;28;20025;-64
2023/05/29 01:06:01;;;;;;;0.77;0.35;;;;;;;16.49;58.35;101593.69;5021521;28;20028;-63
2023/05/29 01:08:26;;;;;;;0.45;0.45;;;;;;;16.53;58.19;101587.13;5046767;28;20041;-64
2023/05/29 01:11:00;;;;;;;2.28;0.45;;;;;;;16.51;58.27;101588.66;5049707;28;20028;-64
2023/05/29 01:13:31;;;;;;;0.28;0.28;;;;;;;16.41;58.04;101594.72;5054214;28;20516;-65
2023/05/29 01:16:03;;;;;;;;;;;;;;;16.39;58.20;101600.53;5052491;28;20040;-67
2023/05/29 01:18:40;;;;;;;1.02;0.40;;;;;;;16.35;58.39;101596.22;5054169;28;19917;-64
2023/05/29 01:22:04;;;;;;;1.73;1.00;;;;;;;16.38;58.40;101598.16;5050465;28;20632;-64
2023/05/29 01:24:46;;;;;;;4.10;0.63;;;;;;;16.32;58.47;101603.16;4977704;28;20042;-66
2023/05/29 01:27:15;;;;;;;1.75;0.50;;;;;;;16.19;58.84;101599.91;5057742;28;20504;-65
2023/05/29 01:29:43;;;;;;;0.65;0.20;;;;;;;16.11;58.68;101592.00;5049819;28;20079;-66
2023/05/29 01:32:09;;;;;;;0.77;0.32;;;;;;;16.04;59.41;101594.66;5049622;28;20029;-66
2023/05/29 01:34:34;;;;;;;0.20;0.20;;;;;;;16.08;58.98;101590.84;5050966;28;20025;-66
2023/05/29 01:37:00;;;;;;;0.73;0.15;;;;;;;15.98;58.65;101588.75;5058620;28;20037;-63
2023/05/29 01:39:27;;;;;;;3.42;0.95;;;;;;;15.79;59.52;101586.16;5050147;28;20481;-64
2023/05/29 01:41:53;;;;;;;0.77;0.50;;;;;;;15.59;59.86;101592.84;5048003;28;20086;-64
2023/05/29 01:44:20;;;;;;;0.30;0.25;;;;;;;15.55;60.37;101585.78;5054972;28;20032;-64
2023/05/29 01:46:47;;;;;;;0.95;0.20;;;;;;;15.54;61.26;101574.16;5043325;28;20527;-64
2023/05/29 01:49:14;;;;;;;0.80;0.60;;;;;;;15.44;61.55;101588.34;5049872;28;20516;-65
2023/05/29 01:51:40;;;;;;;3.00;0.50;;;;;;;15.31;61.59;101586.97;5055067;28;20067;-64
2023/05/29 01:54:06;;;;;;;0.45;0.20;;;;;;;15.29;61.61;101587.28;5059164;28;20479;-63
2023/05/29 01:56:32;;;;;;;0.45;0.45;;;;;;;15.40;61.65;101592.91;5048324;28;20045;-64
2023/05/29 01:59:00;;;;;;;0.75;0.57;;;;;;;15.35;62.19;101598.63;5032248;28;20024;-64
2023/05/29 02:01:26;;;;;;;2.08;0.70;;;;;;;15.32;62.62;101588.50;5044902;28;20039;-64
2023/05/29 02:03:52;;;;;;;0.38;0.25;;;;;;;15.18;62.62;101589.06;5050237;28;20029;-65
2023/05/29 02:06:17;;;;;;;1.55;0.77;;;;;;;15.25;62.26;101577.53;5049679;28;20680;-67
2023/05/29 02:08:43;;;;;;;0.30;0.20;;;;;;;15.26;62.31;101590.75;5053968;28;20401;-66
2023/05/29 02:11:09;;;;;;;3.72;0.60;;;;;;;15.15;62.06;101586.28;5041844;28;20017;-65
2023/05/29 02:13:34;;;;;;;0.88;0.35;;;;;;;15.07;61.96;101588.09;5048780;28;20061;-66
2023/05/29 02:16:00;;;;;;;1.00;0.40;;;;;;;15.09;61.92;101585.81;5044419;28;20448;-69
2023/05/29 02:18:26;;;;;;;2.90;0.40;;;;;;;15.11;61.70;101588.94;5046216;28;20037;-66
2023/05/29 02:20:51;;;;;;;2.45;1.10;;;;;;;15.09;61.80;101595.88;5047953;28;20050;-65
2023/05/29 02:23:21;;;;;;;3.20;0.43;;;;;;;14.97;62.11;101593.34;5057802;28;20025;-64
2023/05/29 02:25:46;;;;;;;0.90;0.40;;;;;;;14.90;62.15;101595.94;5048855;28;20042;-65
2023/05/29 02:28:12;;;;;;;0.55;0.30;;;;;;;14.83;63.04;101587.66;5049677;28;20100;-66
2023/05/29 02:30:38;;;;;;;0.75;0.60;;;;;;;14.78;63.47;101601.50;5047935;28;20765;-66
2023/05/29 02:33:04;;;;;;;1.00;0.30;;;;;;;14.69;64.00;101600.97;5048627;28;20036;-66
2023/05/29 02:35:33;;;;;;;1.33;0.70;;;;;;;14.63;63.30;101588.84;5049265;28;20029;-66
2023/05/29 02:37:58;;;;;;;2.67;0.40;;;;;;;14.50;64.69;101598.28;5049266;28;20397;-67
2023/05/29 02:40:24;;;;;;;0.90;0.38;;;;;;;14.57;64.59;101592.97;5050275;28;20032;-65
2023/05/29 02:42:50;;;;;;;0.60;0.40;;;;;;;14.65;63.60;101586.56;5051124;28;20443;-65
2023/05/29 02:45:15;;;;;;;0.10;0.10;;;;;;;14.48;63.85;101588.56;5050606;28;20486;-66
2023/05/29 02:47:41;;;;;;;1.23;0.47;;;;;;;14.52;63.78;101583.19;5048813;28;20062;-66
2023/05/29 02:50:10;;;;;;;1.40;0.47;;;;;;;14.42;64.37;101586.47;5059677;28;20081;-65
2023/05/29 02:52:39;;;;;;;1.92;0.17;;;;;;;14.40;64.37;101594.97;5046588;28;20854;-66
2023/05/29 02:55:05;;;;;;;0.30;0.20;;;;;;;14.36;64.53;101585.22;5048794;28;20033;-68
2023/05/29 02:57:31;;;;;;;0.10;0.10;;;;;;;14.29;64.67;101593.97;5043418;28;20093;-66
2023/05/29 02:59:57;;;;;;;0.32;0.28;;;;;;;14.32;64.69;101595.22;5034196;28;20033;-66
2023/05/29 03:02:23;;;;;;;2.15;0.40;;;;;;;14.34;64.69;101593.69;5032995;28;20040;-66
2023/05/29 03:04:50;;;;;;;0.15;0.15;;;;;;;14.25;64.59;101595.00;5050612;28;20029;-66
2023/05/29 03:07:16;;;;;;;0.10;0.10;;;;;;;14.22;64.68;101596.53;5047323;28;20031;-65
2023/05/29 03:09:42;;;;;;;1.23;0.73;;;;;;;14.14;65.19;101594.00;5047555;28;20029;-66
2023/05/29 03:12:08;;;;;;;1.63;0.73;;;;;;;14.18;64.91;101611.13;5051892;28;20024;-66
2023/05/29 03:14:35;;;;;;;0.77;0.20;;;;;;;14.18;64.49;101600.28;5053804;28;20554;-66
2023/05/29 03:17:07;;;;;;;1.05;0.80;;;;;;;14.09;65.05;101608.63;5050582;28;20031;-65
2023/05/29 03:19:33;;;;;;;3.67;0.65;;;;;;;14.11;64.94;101600.91;5038560;28;20035;-65
2023/05/29 03:21:59;;;;;;;0.80;0.57;;;;;;;14.09;65.39;101600.50;5051590;28;20461;-65
2023/05/29 03:24:25;;;;;;;3.13;0.82;;;;;;;14.21;64.37;101605.78;5049324;28;20128;-65
2023/05/29 03:26:50;;;;;;;0.30;0.13;;;;;;;14.23;64.13;101597.28;5062827;28;20111;-65
2023/05/29 03:29:17;;;;;;;2.00;0.35;;;;;;;13.91;65.06;101595.84;5053978;28;20041;-64
2023/05/29 03:31:42;;;;;;;0.63;0.20;;;;;;;13.95;65.66;101594.00;5051840;28;20037;-65
2023/05/29 03:34:08;;;;;;;0.40;0.40;;;;;;;13.96;66.10;101592.84;5051003;28;20095;-65
2023/05/29 03:36:37;;;;;;;1.42;0.30;;;;;;;13.83;66.64;101596.81;5052238;28;20100;-65
2023/05/29 03:39:03;;;;;;;0.28;0.28;;;;;;;13.71;66.74;101589.59;5048638;28;20057;-65
2023/05/29 03:41:29;;;;;;;0.32;0.20;;;;;;;13.77;66.43;101590.88;5054265;28;20044;-66
2023/05/29 03:43:55;;;;;;;6.38;1.60;;;;;;;13.74;66.99;101594.31;5050274;28;20087;-64
2023/05/29 03:46:23;;;;;;;0.63;0.47;;;;;;;13.88;66.85;101600.03;5053248;28;20029;-65
2023/05/29 03:48:48;;;;;;;0.52;0.22;;;;;;;13.92;66.18;101598.19;5051699;28;20036;-63
2023/05/29 03:51:14;;;;;;;0.75;0.75;;;;;;;13.93;66.11;101615.22;5056017;28;20054;-64
2023/05/29 03:53:39;;;;;;;1.08;0.40;;;;;;;13.76;66.57;101619.13;5056937;28;20041;-63
2023/05/29 03:56:07;;;;;;;0.25;0.20;;;;;;;13.79;66.64;101621.09;5050945;28;20020;-66
2023/05/29 03:58:33;;;;;;;0.60;0.45;;;;;;;13.80;66.61;101619.19;5048689;28;20025;-66
2023/05/29 04:00:59;;;;;;;0.40;0.20;;;;;;;13.91;66.38;101618.28;5048650;28;20525;-66
2023/05/29 04:03:29;;;;;;;3.03;0.38;;;;;;;13.85;65.85;101622.41;5049131;28;20121;-65
2023/05/29 04:05:55;;;;;;;0.25;0.25;;;;;;;13.88;66.10;101629.06;5049743;28;20029;-64
2023/05/29 04:08:21;;;;;;;0.68;0.43;;;;;;;13.98;65.96;101623.06;5055031;28;20120;-64
2023/05/29 04:10:46;;;;;;;0.47;0.10;;;;;;;14.01;65.35;101623.16;5055825;28;20170;-64
2023/05/29 04:13:12;;;;;;;0.65;0.30;;;;;;;13.98;65.15;101634.69;5051130;28;20029;-63
2023/05/29 04:15:38;;;;;;;0.47;0.43;;;;;;;14.02;65.30;101629.34;5031759;28;20540;-65
2023/05/29 04:18:03;;;;;;;0.57;0.30;;;;;;;13.97;65.57;101627.72;5060108;28;20051;-64
2023/05/29 04:20:29;;;;;;;0.65;0.43;;;;;;;13.86;66.10;101634.03;5053263;28;20029;-64
2023/05/29 04:22:54;;;;;;;3.38;1.17;;;;;;;13.94;65.94;101641.94;5050900;28;20017;-63
2023/05/29 04:25:20;;;;;;;1.45;0.98;;;;;;;13.95;66.46;101630.00;5030270;28;20033;-63
2023/05/29 04:27:48;;;;;;;1.50;0.45;;;;;;;14.05;65.42;101640.25;5047320;28;20036;-63
2023/05/29 04:30:16;;;;;;;0.88;0.50;;;;;;;13.87;66.10;101643.72;5056558;28;20023;-65
2023/05/29 04:32:46;;;;;;;0.32;0.30;;;;;;;13.86;65.96;101651.03;5054961;28;20033;-64
2023/05/29 04:35:13;;;;;;;2.38;0.50;;;;;;;13.93;66.33;101656.63;5049312;28;20076;-64
2023/05/29 04:37:44;;;;;;;;;;;;;;;13.90;65.70;101653.84;5051371;28;20029;-67
2023/05/29 04:40:17;;;;;;;0.20;0.20;;;;;;;14.05;65.71;101645.66;5051918;28;20007;-64
2023/05/29 04:42:45;;;;;;;0.90;0.50;;;;;;;14.14;65.67;101649.00;5050107;28;20028;-65
2023/05/29 04:45:11;;;;;;;1.40;0.25;;;;;;;14.11;65.71;101649.69;5046766;28;20033;-66
2023/05/29 04:47:43;;;;;;;0.70;0.38;;;;;;;14.18;66.07;101649.06;5060197;28;20021;-64
2023/05/29 04:50:11;;;;;;;0.43;0.30;;;;;;;14.28;65.67;101638.50;5042032;28;20025;-63
2023/05/29 04:52:39;;;;;;;2.33;0.22;;;;;;;14.26;65.08;101638.03;5072907;23;21505;-68
2023/05/29 04:55:07;;;;;;;0.47;0.43;;;;;;;14.29;64.71;101650.88;5069216;28;20046;-67
2023/05/29 04:57:33;;;;;;;0.65;0.30;;;;;;;14.27;64.62;101652.34;5063899;28;20119;-67
2023/05/29 04:59:59;;;;;;;2.53;0.85;;;;;;;14.45;63.92;101664.38;5076431;28;20186;-68
2023/05/29 05:02:26;;;;;;;0.73;0.22;;;;;;;14.48;64.36;101668.31;5069366;28;20031;-67
2023/05/29 05:04:51;;;;;;;0.55;0.20;;;;;;;14.40;64.63;101672.81;5053840;28;20115;-68
2023/05/29 05:07:17;;;;;;;0.40;0.30;;;;;;;14.60;64.64;101665.44;5069019;28;20633;-68
2023/05/29 05:09:42;;;;;;;0.75;0.50;;;;;;;14.79;64.38;101679.03;5078103;28;20125;-67
2023/05/29 05:12:13;;;;;;;0.77;0.52;;;;;;;15.21;63.72;101664.31;5069481;28;20035;-69
2023/05/29 05:14:39;;;;;;;0.65;0.25;;;;;;;15.67;62.24;101667.84;5069196;28;20032;-67
2023/05/29 05:17:04;;;;;;;3.47;0.50;;;;;;;16.13;60.81;101679.41;5072101;28;20111;-67
2023/05/29 05:19:30;;;;;;;8.65;0.40;;;;;;;16.50;58.71;101679.56;5076629;28;20033;-67
2023/05/29 05:21:55;;;;;;;4.47;0.75;;;;;;;16.77;56.83;101678.31;5080146;28;20050;-68
2023/05/29 05:24:22;;;;;;;3.45;0.77;;;;;;;17.05;56.04;101679.41;5067460;28;20530;-70
2023/05/29 05:26:48;;;;;;;2.33;0.63;;;;;;;17.25;55.13;101677.28;5079302;28;20032;-69
2023/05/29 05:29:13;;;;;;;0.40;0.30;;;;;;;17.42;54.78;101684.84;5058541;28;20020;-67
2023/05/29 05:31:39;;;;;;;8.18;0.60;;;;;;;17.51;54.03;101685.34;5069404;28;20033;-67
2023/05/29 05:34:05;;;;;;;1.70;0.30;;;;;;;17.68;54.02;101687.44;5073702;28;20115;-68
2023/05/29 05:36:31;;;;;;;2.53;0.45;;;;;;;17.77;53.06;101687.09;5068764;28;20170;-68
2023/05/29 05:39:03;;;;;;;0.77;0.20;;;;;;;17.88;53.67;101677.88;5069120;28;20449;-67
2023/05/29 05:41:29;;;;;;;0.47;0.30;;;;;;;18.10;53.15;101683.47;5068723;28;20024;-67
2023/05/29 05:43:54;;;;;;;1.15;0.40;;;;;;;18.13;51.61;101683.47;5079887;28;20065;-68
2023/05/29 05:46:43;;;;;;;3.00;0.82;;;;;;;18.32;51.85;101687.88;5062572;28;20047;-67
2023/05/29 05:49:08;;;;;;;0.35;0.13;;;;;;;18.42;51.32;101693.41;5069172;28;20127;-68
2023/05/29 05:51:35;;;;;;;3.70;0.45;;;;;;;18.49;51.56;101693.44;5074352;28;20032;-69
2023/05/29 05:54:00;;;;;;;1.08;0.45;;;;;;;18.57;51.22;101686.06;5071187;28;20075;-67
2023/05/29 05:56:27;;;;;;;1.95;0.55;;;;;;;18.54;50.91;101687.59;5078343;28;20119;-67
2023/05/29 05:58:52;;;;;;;2.45;0.73;;;;;;;18.67;51.47;101693.53;5072005;28;20111;-67
2023/05/29 06:01:20;;;;;;;1.70;0.52;;;;;;;18.76;51.34;101680.28;5076799;28;20436;-69
2023/05/29 06:03:45;;;;;;;0.77;0.30;;;;;;;18.89;50.29;101685.03;5076715;28;20028;-67
2023/05/29 06:06:11;;;;;;;0.55;0.20;;;;;;;19.04;50.15;101683.13;5069823;28;20023;-67
2023/05/29 06:08:41;;;;;;;1.23;0.50;;;;;;;19.16;49.48;101690.97;5066900;28;20043;-68
2023/05/29 06:11:07;;;;;;;0.73;0.30;;;;;;;19.29;49.70;101689.41;5058218;28;20024;-67
2023/05/29 06:13:35;;;;;;;2.72;0.40;;;;;;;19.27;48.21;101688.22;5073607;28;20098;-68
2023/05/29 06:16:08;;;;;;;0.80;0.50;;;;;;;19.12;48.89;101689.38;5072561;28;20032;-67
2023/05/29 06:18:35;;;;;;;0.95;0.32;;;;;;;19.20;47.95;101686.25;5078932;28;20082;-67
2023/05/29 06:21:01;;;;;;;4.53;0.77;;;;;;;19.19;48.47;101698.38;5069830;28;20040;-68
2023/05/29 06:23:26;;;;;;;0.85;0.50;;;;;;;19.27;49.12;101699.16;5070700;28;20035;-67
2023/05/29 06:25:52;;;;;;;0.20;0.15;;;;;;;19.24;49.60;101703.44;5068762;28;20033;-68
2023/05/29 06:28:19;;;;;;;0.60;0.13;;;;;;;19.26;49.71;101692.16;5066429;28;20116;-68
2023/05/29 06:30:45;;;;;;;0.10;0.05;;;;;;;19.44;49.12;101709.34;5062922;28;20451;-71
2023/05/29 06:33:11;;;;;;;1.20;0.20;;;;;;;19.51;49.31;101701.19;5051048;28;20146;-67
2023/05/29 06:35:38;;;;;;;2.53;0.40;;;;;;;19.40;48.00;101695.69;5065977;28;20021;-68
2023/05/29 06:38:04;;;;;;;3.50;0.70;;;;;;;19.47;49.11;101692.97;5078275;28;20028;-70
2023/05/29 06:40:30;;;;;;;0.60;0.45;;;;;;;19.50;48.43;101694.94;5073764;28;20082;-67
2023/05/29 06:42:55;;;;;;;4.85;0.38;;;;;;;19.66;48.99;101697.28;5065286;28;20515;-68
2023/05/29 06:45:35;;;;;;;0.43;0.22;;;;;;;19.56;47.94;101701.56;5070638;28;20043;-67
2023/05/29 06:48:00;;;;;;;2.33;1.02;;;;;;;19.56;47.99;101690.63;5076484;28;20036;-68
2023/05/29 06:50:26;;;;;;;1.00;0.20;;;;;;;19.68;49.23;101697.66;5070034;28;20349;-67
2023/05/29 06:52:52;;;;;;;1.05;0.20;;;;;;;19.76;48.67;101708.19;5069497;28;20166;-68
2023/05/29 06:55:33;;;;;;;;;;;;;;;19.70;48.89;101696.09;5076971;28;20032;-68
2023/05/29 06:57:59;;;;;;;1.38;0.17;;;;;;;19.97;48.05;101695.69;5071470;28;19972;-68
2023/05/29 07:00:26;;;;;;;0.80;0.45;;;;;;;20.08;47.18;101697.25;5068644;28;20029;-67
2023/05/29 07:03:12;;;;;;;0.40;0.32;;;;;;;20.10;47.92;101700.38;5077638;28;20030;-66
2023/05/29 07:05:38;;;;;;;0.30;0.30;;;;;;;19.98;47.92;101705.44;5072632;28;20032;-67
2023/05/29 07:08:03;;;;;;;1.95;0.40;;;;;;;19.97;47.86;101709.38;5068184;28;20116;-68
2023/05/29 07:10:29;;;;;;;1.65;0.70;;;;;;;20.10;47.41;101713.25;5073137;28;20037;-69
2023/05/29 07:12:55;;;;;;;0.55;0.20;;;;;;;20.07;46.91;101714.06;5080661;28;20029;-68
2023/05/29 07:15:21;;;;;;;1.00;0.38;;;;;;;20.15;46.89;101719.09;5072016;28;20053;-67
2023/05/29 07:17:46;;;;;;;0.70;0.35;;;;;;;20.35;47.38;101712.06;5068183;28;20051;-67
2023/05/29 07:20:19;;;;;;;0.15;0.10;;;;;;;20.44;47.90;101715.16;5082530;28;20361;-70
2023/05/29 07:22:46;;;;;;;3.03;0.30;;;;;;;20.67;46.91;101714.72;5071460;28;20040;-68
2023/05/29 07:25:12;;;;;;;0.77;0.10;;;;;;;20.87;44.71;101718.53;5063167;28;20028;-69
2023/05/29 07:27:37;;;;;;;0.73;0.20;;;;;;;20.89;45.84;101718.91;5072370;28;20544;-67
2023/05/29 07:30:05;;;;;;;2.97;0.30;;;;;;;20.85;45.21;101712.66;5079927;28;20064;-68
2023/05/29 07:32:31;;;;;;;3.80;0.40;;;;;;;20.90;45.23;101720.47;5071632;28;20016;-68
2023/05/29 07:34:56;;;;;;;1.05;0.22;;;;;;;20.89;45.12;101726.31;5073306;28;20481;-68
2023/05/29 07:37:22;;;;;;;0.93;0.30;;;;;;;21.13;44.90;101729.00;5066323;28;20095;-69
2023/05/29 07:39:47;;;;;;;2.97;0.55;;;;;;;21.39;44.13;101730.38;5071572;28;20037;-67
2023/05/29 07:42:39;;;;;;;2.15;0.20;;;;;;;21.32;44.58;101739.44;5057734;28;20040;-68
2023/05/29 07:45:05;;;;;;;1.42;0.30;;;;;;;21.23;44.69;101728.16;5074512;28;20115;-67
2023/05/29 07:47:30;;;;;;;0.15;0.15;;;;;;;21.27;44.65;101723.41;5067556;28;20079;-68
2023/05/29 07:49:56;;;;;;;0.70;0.30;;;;;;;21.30;44.53;101727.31;5085211;28;20159;-68
2023/05/29 07:52:25;;;;;;;1.33;0.77;;;;;;;21.40;44.69;101730.00;5050324;28;20041;-69
2023/05/29 07:54:50;;;;;;;1.05;0.57;;;;;;;21.58;43.35;101737.31;5075323;28;20078;-68
2023/05/29 07:57:16;;;;;;;3.30;0.65;;;;;;;21.53;42.90;101733.81;5070411;28;20559;-67
2023/05/29 07:59:43;;;;;;;3.55;0.40;;;;;;;21.67;43.81;101735.69;5055004;28;20112;-68
2023/05/29 08:02:10;;;;;;;1.98;0.50;;;;;;;21.70;43.72;101734.09;5070558;28;20028;-68
2023/05/29 08:05:03;;;;;;;1.27;0.35;;;;;;;21.84;43.76;101739.47;5055573;28;20048;-67
2023/05/29 08:07:30;;;;;;;4.03;1.05;;;;;;;21.92;43.77;101738.25;5066711;28;20082;-68
2023/05/29 08:09:56;;;;;;;2.67;0.52;;;;;;;21.88;43.53;101734.75;5077806;28;20416;-67
2023/05/29 08:12:21;;;;;;;0.85;0.30;;;;;;;22.04;43.38;101727.56;5081570;28;20082;-69
2023/05/29 08:14:48;;;;;;;2.38;0.75;;;;;;;21.81;42.06;101727.38;5070652;28;20029;-67
2023/05/29 08:17:14;;;;;;;2.17;0.57;;;;;;;22.05;43.47;101728.31;5075761;28;20574;-68
2023/05/29 08:19:39;;;;;;;0.85;0.70;;;;;;;22.19;43.27;101730.94;5081367;28;20115;-69
2023/05/29 08:22:05;;;;;;;2.33;0.40;;;;;;;22.29;43.23;101727.31;5070749;28;20028;-68
2023/05/29 08:24:31;;;;;;;0.25;0.20;;;;;;;22.57;42.04;101732.50;5078885;28;20461;-68
2023/05/29 08:26:56;;;;;;;0.95;0.40;;;;;;;22.63;41.68;101730.88;5072531;28;20067;-68
2023/05/29 08:29:22;;;;;;;1.15;0.50;;;;;;;22.61;41.81;101735.22;5067066;28;20038;-70
2023/05/29 08:31:47;;;;;;;1.02;0.43;;;;;;;22.74;40.96;101739.78;5074442;28;20039;-68
2023/05/29 08:34:13;;;;;;;1.92;0.40;;;;;;;22.79;41.01;101727.53;5083184;28;20031;-68
2023/05/29 08:36:41;;;;;;;1.92;0.38;;;;;;;22.73;40.25;101724.47;5071890;28;20067;-69
2023/05/29 08:39:07;;;;;;;2.38;0.68;;;;;;;22.78;40.81;101715.78;5070643;28;20055;-69
2023/05/29 08:41:38;;;;;;;4.13;0.55;;;;;;;22.74;40.94;101728.00;5076020;28;20414;-69
2023/05/29 08:44:05;;;;;;;3.20;0.30;;;;;;;22.66;41.26;101724.56;5075567;28;20028;-69
2023/05/29 08:46:31;;;;;;;1.52;0.35;;;;;;;22.79;41.13;101719.28;5071624;28;20111;-69
2023/05/29 08:48:59;;;;;;;2.22;1.10;;;;;;;22.94;40.13;101729.69;5070633;28;20400;-67
2023/05/29 08:51:31;;;;;;;3.60;0.52;;;;;;;23.11;40.27;101731.41;5075480;28;20036;-68
2023/05/29 08:53:56;;;;;;;0.85;0.20;;;;;;;23.10;39.95;101729.09;5071138;28;20047;-69
2023/05/29 08:56:22;;;;;;;1.83;0.45;;;;;;;23.31;40.28;101726.06;5070403;28;20036;-70
2023/05/29 08:58:48;;;;;;;0.75;0.40;;;;;;;23.23;39.53;101736.34;5069481;28;20110;-67
2023/05/29 09:01:14;;;;;;;1.55;0.32;;;;;;;23.50;39.43;101727.38;5084745;28;20052;-68
2023/05/29 09:03:41;;;;;;;0.90;0.30;;;;;;;23.52;40.23;101734.00;5071169;28;20193;-69
2023/05/29 09:06:08;;;;;;;0.93;0.57;;;;;;;23.71;39.76;101736.03;5070999;28;20029;-69
2023/05/29 09:08:35;;;;;;;1.38;0.52;;;;;;;23.67;39.67;101731.81;5062901;28;20485;-68
2023/05/29 09:11:01;;;;;;;0.77;0.35;;;;;;;23.76;39.24;101724.56;5077075;28;20383;-68
2023/05/29 09:13:28;;;;;;;2.42;0.30;;;;;;;23.87;39.99;101741.69;5071459;28;20040;-67
2023/05/29 09:16:00;;;;;;;0.57;0.40;;;;;;;24.04;39.33;101737.09;5066694;28;20023;-68
2023/05/29 09:18:30;;;;;;;2.15;0.38;;;;;;;24.15;39.71;101737.69;5070975;28;20500;-67
2023/05/29 09:20:57;;;;;;;1.77;0.70;;;;;;;24.20;37.59;101739.19;5070645;28;20161;-67
2023/05/29 09:23:23;;;;;;;1.63;0.63;;;;;;;24.16;38.67;101742.78;5071132;28;20086;-67
2023/05/29 09:25:53;;;;;;;0.90;0.68;;;;;;;24.42;38.52;101737.56;5071865;28;20050;-69
2023/05/29 09:28:20;;;;;;;2.08;0.55;;;;;;;24.49;39.18;101749.22;5075155;28;20496;-67
2023/05/29 09:30:48;;;;;;;0.83;0.33;;;;;;;24.55;39.13;101746.75;5064652;28;20048;-67
2023/05/29 09:33:15;;;;;;;1.40;0.38;;;;;;;24.56;37.74;101740.84;5070473;28;20037;-68
2023/05/29 09:35:43;;;;;;;2.42;0.95;;;;;;;24.47;37.32;101748.09;5064979;28;20528;-69
2023/05/29 09:38:13;;;;;;;0.30;0.20;;;;;;;24.56;38.15;101743.59;5069772;28;20040;-67
2023/05/29 09:40:40;;;;;;;0.03;0.03;;;;;;;24.84;37.55;101739.50;5067730;28;20036;-67
2023/05/29 09:43:11;;;;;;;1.33;0.50;;;;;;;24.83;37.30;101744.25;5080704;28;20019;-67
2023/05/29 09:45:37;;;;;;;;;;;;;;;24.95;36.79;101749.09;5071146;28;20458;-68
2023/05/29 09:48:04;;;;;;;0.17;0.15;;;;;;;25.11;37.26;101755.88;5069952;28;20274;-67
2023/05/29 09:50:30;;;;;;;1.67;0.52;;;;;;;25.18;37.70;101747.44;5072945;28;20115;-69
2023/05/29 09:53:18;;;;;;;1.17;0.28;;;;;;;25.30;36.68;101757.81;5073081;28;20592;-67
2023/05/29 09:55:46;;;;;;;0.43;0.43;;;;;;;25.47;37.69;101751.94;4988658;28;20054;-68
2023/05/29 09:58:14;;;;;;;0.47;0.40;;;;;;;25.26;37.18;101744.09;4987785;28;20046;-67
2023/05/29 10:00:41;;;;;;;0.68;0.20;;;;;;;25.24;36.62;101734.72;4985405;28;20561;-68
2023/05/29 10:03:07;;;;;;;2.00;0.40;;;;;;;25.33;36.67;101737.66;4994113;28;20053;-68
2023/05/29 10:05:32;;;;;;;0.95;0.32;;;;;;;25.21;36.36;101728.06;4994612;28;20128;-67
2023/05/29 10:08:01;;;;;;;0.30;0.22;;;;;;;25.08;36.38;101734.66;4988010;28;20038;-67
2023/05/29 10:10:28;;;;;;;3.15;0.20;;;;;;;25.35;37.99;101732.47;4980182;28;20046;-67
2023/05/29 10:12:55;;;;;;;0.98;0.47;;;;;;;25.54;36.58;101734.41;4975064;28;20050;-67
2023/05/29 10:15:23;;;;;;;4.50;0.50;;;;;;;25.75;35.69;101737.44;4989014;28;20034;-69
2023/05/29 10:18:04;;;;;;;1.17;0.43;;;;;;;25.85;34.67;101728.13;4989579;28;20030;-67
2023/05/29 10:20:31;;;;;;;0.60;0.47;;;;;;;26.07;34.61;101722.84;4973058;28;20050;-68
2023/05/29 10:23:00;;;;;;;0.20;0.20;;;;;;;26.14;35.37;101728.19;4993516;28;20482;-71
2023/05/29 10:25:28;;;;;;;1.95;0.50;;;;;;;26.09;35.15;101722.41;4971933;28;20399;-68
2023/05/29 10:27:56;;;;;;;1.52;0.20;;;;;;;25.96;35.18;101721.56;4967754;28;20126;-69
2023/05/29 10:30:50;;;;;;;0.70;0.40;;;;;;;26.03;33.51;101724.13;4997337;28;20022;-67
2023/05/29 10:34:00;;;;;;;0.65;0.52;;;;;;;25.81;34.14;101726.63;5043077;28;20117;-69
2023/05/29 10:36:35;;;;;;;2.95;0.22;;;;;;;25.93;34.55;101710.16;5072117;28;20534;-68
2023/05/29 10:39:01;;;;;;;1.10;0.50;;;;;;;26.07;34.59;101706.28;5075768;28;20476;-68
2023/05/29 10:41:27;;;;;;;3.38;0.40;;;;;;;25.88;33.28;101709.88;5072999;28;20041;-67
2023/05/29 10:43:56;;;;;;;0.30;0.10;;;;;;;26.00;33.76;101711.19;5079722;28;20047;-68
2023/05/29 10:46:42;;;;;;;0.90;0.60;;;;;;;25.85;33.48;101710.75;5074490;28;20043;-70
2023/05/29 10:49:18;;;;;;;2.58;0.22;;;;;;;25.76;34.22;101707.84;5063614;28;20041;-67
2023/05/29 10:51:44;;;;;;;3.42;0.52;;;;;;;25.99;34.84;101710.41;5069806;28;20037;-68
2023/05/29 10:54:10;;;;;;;1.75;0.30;;;;;;;25.88;33.29;101704.34;5081829;22;20040;-66
2023/05/29 10:56:35;;;;;;;2.00;0.35;;;;;;;26.01;34.03;101707.19;5069868;28;20035;-65
2023/05/29 10:59:01;;;;;;;3.28;0.55;;;;;;;25.83;34.31;101711.19;5073378;28;20395;-66
2023/05/29 11:01:28;;;;;;;0.40;0.28;;;;;;;26.14;34.16;101708.84;5073839;28;20116;-66
2023/05/29 11:04:16;;;;;;;1.00;0.40;;;;;;;26.37;33.18;101699.53;5083376;28;20096;-65
2023/05/29 11:06:42;;;;;;;0.73;0.50;;;;;;;26.53;32.81;101711.31;5090926;28;20067;-66
2023/05/29 11:09:40;;;;;;;0.65;0.30;;;;;;;26.60;32.35;101708.31;5102626;28;20031;-67
2023/05/29 11:12:25;;;;;;;2.38;0.40;;;;;;;26.93;32.57;101697.09;5090981;28;20047;-66
2023/05/29 11:15:02;;;;;;;0.40;0.30;;;;;;;26.78;33.55;101705.84;5089190;28;20039;-66
2023/05/29 11:17:31;;;;;;;1.98;0.20;;;;;;;27.03;33.02;101694.03;5106273;28;20107;-65
2023/05/29 11:20:00;;;;;;;2.17;0.38;;;;;;;26.95;32.72;101689.16;5093622;28;20472;-66
2023/05/29 11:22:41;;;;;;;1.55;0.65;;;;;;;27.09;33.66;101695.03;5090371;28;20085;-65
2023/05/29 11:25:07;;;;;;;0.90;0.40;;;;;;;27.23;33.25;101694.59;5096370;28;20118;-65
2023/05/29 11:27:34;;;;;;;0.20;0.20;;;;;;;27.24;33.50;101687.81;5093116;28;20120;-65
2023/05/29 11:30:00;;;;;;;0.47;0.28;;;;;;;27.20;32.26;101678.88;5097141;28;20060;-65